createdAt,value
2024-04-15T00:01:45.705Z,99.90
2024-04-15T00:04:14.727Z,99.90
2024-04-15T00:06:42.246Z,99.90
2024-04-15T00:09:09.493Z,99.90
2024-04-15T00:11:36.761Z,99.90
2024-04-15T00:14:04.398Z,99.90
2024-04-15T00:16:32.732Z,99.90
2024-04-15T00:19:00.212Z,99.90
2024-04-15T00:21:27.591Z,99.90
2024-04-15T00:23:54.825Z,99.90
2024-04-15T00:26:22.047Z,99.90
2024-04-15T00:28:49.326Z,99.90
2024-04-15T00:31:16.616Z,99.90
2024-04-15T00:33:46.977Z,99.90
2024-04-15T00:36:14.251Z,99.90
2024-04-15T00:38:41.600Z,99.90
2024-04-15T00:41:08.978Z,99.90
2024-04-15T00:43:38.014Z,99.90
2024-04-15T00:46:07.917Z,99.90
2024-04-15T00:48:35.476Z,99.90
2024-04-15T00:51:02.755Z,99.90
2024-04-15T00:53:30.246Z,99.90
2024-04-15T00:55:59.684Z,99.90
2024-04-15T00:58:27.375Z,99.90
2024-04-15T01:00:54.978Z,99.90
2024-04-15T01:03:23.396Z,99.90
2024-04-15T01:05:51.218Z,99.90
2024-04-15T01:08:18.714Z,99.90
2024-04-15T01:10:55.391Z,99.90
2024-04-15T01:13:27.747Z,99.90
2024-04-15T01:15:58.974Z,99.90
2024-04-15T01:18:26.727Z,99.90
2024-04-15T01:20:55.916Z,99.90
2024-04-15T01:23:23.687Z,99.90
2024-04-15T01:25:51.265Z,99.90
2024-04-15T01:28:20.902Z,99.90
2024-04-15T01:30:49.929Z,99.90
2024-04-15T01:33:17.320Z,99.90
2024-04-15T01:35:44.604Z,99.90
2024-04-15T01:38:11.911Z,99.90
2024-04-15T01:40:39.208Z,99.90
2024-04-15T01:43:06.939Z,99.90
2024-04-15T01:45:34.211Z,99.90
2024-04-15T01:48:01.770Z,99.90
2024-04-15T01:50:29.080Z,99.90
2024-04-15T01:52:56.530Z,99.90
2024-04-15T01:55:24.041Z,99.90
2024-04-15T01:57:51.389Z,99.90
2024-04-15T02:00:19.816Z,99.90
2024-04-15T02:02:47.201Z,99.90
2024-04-15T02:05:34.173Z,99.90
2024-04-15T02:08:15.056Z,99.90
2024-04-15T02:10:46.052Z,99.90
2024-04-15T02:13:16.054Z,99.90
2024-04-15T02:15:43.506Z,99.90
2024-04-15T02:18:17.135Z,99.90
2024-04-15T02:20:48.967Z,99.90
2024-04-15T02:23:17.620Z,99.90
2024-04-15T02:25:44.931Z,99.90
2024-04-15T02:28:12.255Z,99.90
2024-04-15T02:30:39.564Z,99.90
2024-04-15T02:33:06.908Z,99.90
2024-04-15T02:35:34.207Z,99.90
2024-04-15T02:38:01.541Z,99.90
2024-04-15T02:40:28.966Z,99.90
2024-04-15T02:42:56.173Z,99.90
2024-04-15T02:45:23.459Z,99.90
2024-04-15T02:47:50.784Z,99.90
2024-04-15T02:50:18.162Z,99.90
2024-04-15T02:52:45.699Z,99.90
2024-04-15T02:55:13.054Z,99.90
2024-04-15T02:57:40.457Z,99.90
2024-04-15T03:00:08.026Z,99.90
2024-04-15T03:02:37.660Z,99.90
2024-04-15T03:05:05.248Z,99.90
2024-04-15T03:07:32.497Z,99.90
2024-04-15T03:09:59.827Z,99.90
2024-04-15T03:12:27.130Z,99.90
2024-04-15T03:14:54.788Z,99.90
2024-04-15T03:17:22.205Z,99.90
2024-04-15T03:19:53.448Z,99.90
2024-04-15T03:22:20.998Z,99.90
2024-04-15T03:24:48.755Z,99.90
2024-04-15T03:27:16.107Z,99.90
2024-04-15T03:29:44.009Z,99.90
2024-04-15T03:32:11.374Z,99.90
2024-04-15T03:34:38.683Z,99.90
2024-04-15T03:37:06.037Z,99.90
2024-04-15T03:39:33.356Z,99.90
2024-04-15T03:42:02.371Z,99.90
2024-04-15T03:44:29.635Z,99.90
2024-04-15T03:46:56.869Z,99.90
2024-04-15T03:49:24.133Z,99.90
2024-04-15T03:51:51.503Z,99.90
2024-04-15T03:54:18.780Z,99.90
2024-04-15T03:56:46.002Z,99.90
2024-04-15T03:59:13.335Z,99.90
2024-04-15T04:01:41.059Z,99.90
2024-04-15T04:04:08.466Z,99.90
2024-04-15T04:06:36.080Z,99.90
2024-04-15T04:09:03.622Z,99.90
2024-04-15T04:11:31.052Z,99.90
2024-04-15T04:14:00.675Z,99.90
2024-04-15T04:16:27.955Z,99.90
2024-04-15T04:18:56.664Z,99.90
2024-04-15T04:21:23.919Z,99.90
2024-04-15T04:23:51.188Z,99.90
2024-04-15T04:26:18.573Z,99.90
2024-04-15T04:28:45.797Z,99.90
2024-04-15T04:31:14.709Z,99.90
2024-04-15T04:33:42.127Z,99.90
2024-04-15T04:36:09.611Z,99.90
2024-04-15T04:38:37.075Z,99.90
2024-04-15T04:41:04.421Z,99.90
2024-04-15T04:43:31.873Z,99.90
2024-04-15T04:46:08.069Z,99.90
2024-04-15T04:48:35.394Z,99.90
2024-04-15T04:51:09.499Z,99.90
2024-04-15T04:53:37.072Z,99.90
2024-04-15T04:56:11.867Z,99.90
2024-04-15T04:58:39.589Z,99.90
2024-04-15T05:01:10.498Z,99.90
2024-04-15T05:03:39.589Z,99.90
2024-04-15T05:06:07.694Z,99.90
2024-04-15T05:08:35.385Z,99.90
2024-04-15T05:11:03.036Z,99.90
2024-04-15T05:13:30.719Z,99.90
2024-04-15T05:16:04.976Z,99.90
2024-04-15T05:18:32.551Z,99.90
2024-04-15T05:21:03.315Z,99.90
2024-04-15T05:23:31.153Z,99.90
2024-04-15T05:25:59.107Z,99.90
2024-04-15T05:28:26.469Z,99.90
2024-04-15T05:30:54.263Z,99.90
2024-04-15T05:33:21.980Z,99.90
2024-04-15T05:35:49.249Z,99.90
2024-04-15T05:38:16.876Z,99.90
2024-04-15T05:40:44.131Z,99.90
2024-04-15T05:43:11.567Z,99.90
2024-04-15T05:45:39.199Z,99.90
2024-04-15T05:48:06.902Z,99.90
2024-04-15T05:50:34.593Z,99.90
2024-04-15T05:53:03.397Z,99.90
2024-04-15T05:55:30.675Z,99.90
2024-04-15T05:57:57.971Z,99.90
2024-04-15T06:00:25.379Z,99.90
2024-04-15T06:02:52.654Z,99.90
2024-04-15T06:05:20.995Z,99.90
2024-04-15T06:07:48.295Z,99.90
2024-04-15T06:10:15.576Z,99.90
2024-04-15T06:12:42.804Z,99.90
2024-04-15T06:15:10.143Z,99.90
2024-04-15T06:17:37.543Z,99.90
2024-04-15T06:20:05.164Z,99.90
2024-04-15T06:22:32.556Z,99.90
2024-04-15T06:24:59.786Z,99.90
2024-04-15T06:27:27.047Z,99.90
2024-04-15T06:29:54.347Z,99.90
2024-04-15T06:32:21.727Z,99.90
2024-04-15T06:34:48.977Z,99.90
2024-04-15T06:37:16.242Z,99.90
2024-04-15T06:39:45.045Z,99.90
2024-04-15T06:42:12.552Z,99.90
2024-04-15T06:44:39.831Z,99.90
2024-04-15T06:47:07.260Z,99.90
2024-04-15T06:49:34.491Z,99.90
2024-04-15T06:52:01.769Z,99.90
2024-04-15T06:54:29.217Z,99.90
2024-04-15T06:56:57.192Z,99.90
2024-04-15T06:59:24.642Z,99.90
2024-04-15T07:01:52.233Z,99.90
2024-04-15T07:04:19.660Z,99.90
2024-04-15T07:06:48.699Z,99.90
2024-04-15T07:09:16.234Z,99.90
2024-04-15T07:11:43.640Z,99.90
2024-04-15T07:14:11.034Z,99.90
2024-04-15T07:16:38.467Z,99.90
2024-04-15T07:19:05.857Z,99.90
2024-04-15T07:21:33.134Z,99.90
2024-04-15T07:24:02.193Z,99.90
2024-04-15T07:26:32.611Z,99.90
2024-04-15T07:29:00.845Z,99.90
2024-04-15T07:31:31.119Z,99.90
2024-04-15T07:33:58.520Z,99.90
2024-04-15T07:36:25.824Z,99.90
2024-04-15T07:38:53.025Z,99.90
2024-04-15T07:41:20.258Z,99.90
2024-04-15T07:43:47.496Z,99.90
2024-04-15T07:46:14.891Z,99.90
2024-04-15T07:48:42.655Z,99.90
2024-04-15T07:51:10.667Z,99.90
2024-04-15T07:53:37.921Z,99.90
2024-04-15T07:56:05.343Z,99.90
2024-04-15T07:58:35.394Z,99.90
2024-04-15T08:01:02.827Z,99.90
2024-04-15T08:03:30.224Z,99.90
2024-04-15T08:05:58.166Z,99.90
2024-04-15T08:08:25.470Z,99.90
2024-04-15T08:10:53.331Z,99.90
2024-04-15T08:13:20.797Z,99.90
2024-04-15T08:15:48.147Z,99.90
2024-04-15T08:18:16.397Z,99.90
2024-04-15T08:20:43.721Z,99.90
2024-04-15T08:23:12.604Z,99.90
2024-04-15T08:25:42.803Z,99.90
2024-04-15T08:28:11.688Z,99.90
2024-04-15T08:30:39.082Z,99.90
2024-04-15T08:33:06.482Z,99.90
2024-04-15T08:35:33.887Z,99.90
2024-04-15T08:38:01.236Z,99.90
2024-04-15T08:40:28.479Z,99.90
2024-04-15T08:42:56.867Z,99.90
2024-04-15T08:45:25.137Z,99.90
2024-04-15T08:47:54.835Z,99.90
2024-04-15T08:50:22.970Z,99.90
2024-04-15T08:52:50.981Z,99.90
2024-04-15T08:55:19.601Z,99.90
2024-04-15T08:57:48.000Z,99.90
2024-04-15T09:00:18.301Z,99.90
2024-04-15T09:02:46.738Z,99.90
2024-04-15T09:05:15.314Z,99.90
2024-04-15T09:07:42.622Z,99.90
2024-04-15T09:10:14.761Z,99.90
2024-04-15T09:12:43.174Z,99.90
2024-04-15T09:15:11.422Z,99.90
2024-04-15T09:17:38.741Z,99.90
2024-04-15T09:20:06.542Z,99.90
2024-04-15T09:22:35.508Z,99.90
2024-04-15T09:25:06.637Z,99.90
2024-04-15T09:27:34.323Z,99.90
2024-04-15T09:30:02.370Z,99.90
2024-04-15T09:32:29.817Z,99.90
2024-04-15T09:35:01.763Z,99.90
2024-04-15T09:37:29.398Z,99.90
2024-04-15T09:39:56.820Z,99.90
2024-04-15T09:42:25.186Z,99.90
2024-04-15T09:44:52.774Z,99.90
2024-04-15T09:47:20.095Z,99.90
2024-04-15T09:49:48.050Z,99.90
2024-04-15T09:52:18.594Z,99.90
2024-04-15T09:54:54.366Z,99.90
2024-04-15T09:57:22.296Z,99.90
2024-04-15T10:00:00.388Z,99.90
2024-04-15T10:02:40.522Z,99.90
2024-04-15T10:05:21.271Z,99.90
2024-04-15T10:07:53.164Z,99.90
2024-04-15T10:10:22.761Z,99.90
2024-04-15T10:12:51.072Z,99.90
2024-04-15T10:15:19.046Z,99.90
2024-04-15T10:17:59.610Z,99.90
2024-04-15T10:20:33.922Z,99.90
2024-04-15T10:23:06.277Z,99.90
2024-04-15T10:25:38.492Z,99.90
2024-04-15T10:28:06.553Z,99.90
2024-04-15T10:30:34.228Z,99.90
2024-04-15T10:33:04.541Z,99.90
2024-04-15T10:35:33.911Z,99.90
2024-04-15T10:38:02.407Z,99.90
2024-04-15T10:40:30.338Z,99.90
2024-04-15T10:42:58.576Z,99.90
2024-04-15T10:45:27.502Z,99.90
2024-04-15T10:47:55.333Z,99.90
2024-04-15T10:50:24.243Z,99.90
2024-04-15T10:52:51.667Z,99.90
2024-04-15T10:55:22.707Z,99.90
2024-04-15T10:57:51.560Z,99.90
2024-04-15T11:00:19.796Z,99.90
2024-04-15T11:02:48.031Z,99.90
2024-04-15T11:05:15.897Z,99.90
2024-04-15T11:07:43.756Z,99.90
2024-04-15T11:10:13.231Z,99.90
2024-04-15T11:12:40.832Z,99.90
2024-04-15T11:15:12.291Z,99.90
2024-04-15T11:17:52.961Z,99.90
2024-04-15T11:20:21.165Z,99.90
2024-04-15T11:22:48.807Z,99.90
2024-04-15T11:25:16.957Z,99.90
2024-04-15T11:27:50.659Z,99.90
2024-04-15T11:30:22.895Z,99.90
2024-04-15T11:32:52.657Z,99.90
2024-04-15T11:35:20.797Z,99.90
2024-04-15T11:37:55.217Z,99.90
2024-04-15T11:40:22.646Z,99.90
2024-04-15T11:42:50.230Z,99.90
2024-04-15T11:45:17.525Z,99.90
2024-04-15T11:47:44.997Z,99.90
2024-04-15T11:50:12.222Z,99.90
2024-04-15T11:52:39.842Z,99.90
2024-04-15T11:55:16.459Z,99.90
2024-04-15T11:57:47.032Z,99.90
2024-04-15T12:00:14.929Z,99.90
2024-04-15T12:02:42.691Z,99.90
2024-04-15T12:05:10.823Z,99.90
2024-04-15T12:07:41.813Z,99.90
2024-04-15T12:10:11.502Z,99.90
2024-04-15T12:12:40.773Z,99.90
2024-04-15T12:15:11.690Z,99.90
2024-04-15T12:17:41.001Z,99.90
2024-04-15T12:20:09.622Z,99.90
2024-04-15T12:22:37.128Z,99.90
2024-04-15T12:25:08.509Z,99.90
2024-04-15T12:27:39.290Z,99.80
2024-04-15T12:30:08.276Z,99.90
2024-04-15T12:32:35.889Z,99.70
2024-04-15T12:35:03.249Z,99.90
2024-04-15T12:37:30.559Z,99.90
2024-04-15T12:39:57.976Z,99.90
2024-04-15T12:42:30.723Z,99.90
2024-04-15T12:44:58.212Z,99.90
2024-04-15T12:47:26.572Z,99.90
2024-04-15T12:49:53.885Z,99.90
2024-04-15T12:52:21.227Z,99.90
2024-04-15T12:54:51.712Z,99.70
2024-04-15T12:57:21.000Z,99.20
2024-04-15T12:59:48.483Z,99.10
2024-04-15T13:02:16.303Z,99.30
2024-04-15T13:04:46.788Z,99.20
2024-04-15T13:07:14.504Z,99.20
2024-04-15T13:09:41.807Z,99.90
2024-04-15T13:12:11.648Z,99.30
2024-04-15T13:14:39.469Z,99.60
2024-04-15T13:17:06.932Z,98.80
2024-04-15T13:19:34.302Z,98.50
2024-04-15T13:22:04.238Z,98.40
2024-04-15T13:24:35.319Z,99.00
2024-04-15T13:27:02.839Z,98.00
2024-04-15T13:29:33.903Z,98.70
2024-04-15T13:32:09.048Z,98.00
2024-04-15T13:34:43.862Z,98.00
2024-04-15T13:37:15.597Z,98.10
2024-04-15T13:39:43.595Z,98.80
2024-04-15T13:42:11.216Z,99.20
2024-04-15T13:44:38.649Z,99.50
2024-04-15T13:47:06.175Z,99.30
2024-04-15T13:49:33.835Z,99.20
2024-04-15T13:52:02.462Z,98.30
2024-04-15T13:54:32.199Z,97.60
2024-04-15T13:57:00.453Z,97.90
2024-04-15T13:59:28.503Z,98.00
2024-04-15T14:01:55.729Z,96.90
2024-04-15T14:04:23.208Z,96.90
2024-04-15T14:06:51.056Z,96.50
2024-04-15T14:09:23.985Z,97.20
2024-04-15T14:11:51.679Z,97.60
2024-04-15T14:14:20.827Z,97.70
2024-04-15T14:16:49.000Z,97.90
2024-04-15T14:19:16.408Z,97.80
2024-04-15T14:21:44.963Z,96.40
2024-04-15T14:24:12.323Z,97.20
2024-04-15T14:26:39.684Z,97.80
2024-04-15T14:29:08.972Z,98.10
2024-04-15T14:31:36.260Z,97.90
2024-04-15T14:34:03.543Z,97.60
2024-04-15T14:36:31.676Z,97.00
2024-04-15T14:38:59.375Z,97.10
2024-04-15T14:41:26.843Z,96.70
2024-04-15T14:43:57.098Z,96.20
2024-04-15T14:46:26.683Z,95.80
2024-04-15T14:48:54.326Z,95.90
2024-04-15T14:51:21.706Z,96.90
2024-04-15T14:53:50.257Z,98.40
2024-04-15T14:56:18.705Z,99.90
2024-04-15T14:58:45.945Z,99.90
2024-04-15T15:01:13.378Z,99.90
2024-04-15T15:03:40.779Z,99.90
2024-04-15T15:06:08.965Z,99.90
2024-04-15T15:08:36.389Z,99.90
2024-04-15T15:11:10.251Z,99.90
2024-04-15T15:13:49.463Z,99.90
2024-04-15T15:16:16.814Z,99.90
2024-04-15T15:18:44.156Z,99.90
2024-04-15T15:21:20.611Z,99.90
2024-04-15T15:23:54.098Z,99.90
2024-04-15T15:26:21.362Z,99.90
2024-04-15T15:28:48.702Z,99.90
2024-04-15T15:31:20.178Z,99.90
2024-04-15T15:33:49.012Z,99.90
2024-04-15T15:36:17.494Z,99.90
2024-04-15T15:38:44.888Z,99.90
2024-04-15T15:41:13.446Z,99.90
2024-04-15T15:43:40.740Z,99.30
2024-04-15T15:46:08.611Z,99.10
2024-04-15T15:48:36.097Z,99.60
2024-04-15T15:51:03.807Z,99.90
2024-04-15T15:53:31.034Z,99.90
2024-04-15T15:55:58.403Z,99.90
2024-04-15T15:58:25.921Z,99.90
2024-04-15T16:00:53.789Z,99.90
2024-04-15T16:03:22.136Z,99.90
2024-04-15T16:05:50.226Z,99.90
2024-04-15T16:08:18.770Z,99.90
2024-04-15T16:10:46.598Z,99.90
2024-04-15T16:13:18.419Z,99.90
2024-04-15T16:15:46.061Z,99.90
2024-04-15T16:18:15.649Z,99.90
2024-04-15T16:20:43.409Z,99.90
2024-04-15T16:23:11.371Z,99.90
2024-04-15T16:25:38.839Z,99.90
2024-04-15T16:28:06.948Z,99.90
2024-04-15T16:30:45.001Z,99.90
2024-04-15T16:33:16.410Z,99.90
2024-04-15T16:35:50.493Z,99.90
2024-04-15T16:38:19.961Z,99.90
2024-04-15T16:41:13.330Z,99.90
2024-04-15T16:43:41.197Z,99.90
2024-04-15T16:46:09.769Z,99.90
2024-04-15T16:48:38.339Z,99.90
2024-04-15T16:51:05.814Z,99.90
2024-04-15T16:53:45.276Z,99.90
2024-04-15T16:56:12.891Z,99.90
2024-04-15T16:58:57.285Z,99.90
2024-04-15T17:01:25.348Z,99.90
2024-04-15T17:03:52.771Z,99.90
2024-04-15T17:06:20.455Z,99.90
2024-04-15T17:08:48.881Z,99.90
2024-04-15T17:11:17.377Z,99.90
2024-04-15T17:13:44.770Z,99.90
2024-04-15T17:16:15.393Z,99.90
2024-04-15T17:18:42.932Z,99.90
2024-04-15T17:21:10.323Z,99.90
2024-04-15T17:23:44.453Z,99.90
2024-04-15T17:26:11.904Z,99.90
2024-04-15T17:28:39.874Z,99.90
2024-04-15T17:31:09.945Z,99.90
2024-04-15T17:33:37.366Z,99.90
2024-04-15T17:36:05.232Z,99.90
2024-04-15T17:38:33.544Z,99.90
2024-04-15T17:41:04.344Z,99.90
2024-04-15T17:43:34.217Z,99.90
2024-04-15T17:46:02.307Z,99.90
2024-04-15T17:48:29.866Z,99.90
2024-04-15T17:50:58.372Z,99.90
2024-04-15T17:53:25.908Z,99.90
2024-04-15T17:55:53.291Z,99.90
2024-04-15T17:58:20.793Z,99.90
2024-04-15T18:00:49.289Z,99.90
2024-04-15T18:03:16.794Z,99.90
2024-04-15T18:05:49.837Z,99.90
2024-04-15T18:08:17.330Z,99.90
2024-04-15T18:10:46.206Z,99.90
2024-04-15T18:13:13.914Z,99.90
2024-04-15T18:15:42.140Z,99.90
2024-04-15T18:18:09.747Z,99.90
2024-04-15T18:20:40.389Z,99.90
2024-04-15T18:23:08.137Z,99.90
2024-04-15T18:25:38.048Z,99.90
2024-04-15T18:28:06.702Z,99.90
2024-04-15T18:30:37.385Z,99.90
2024-04-15T18:33:05.051Z,99.90
2024-04-15T18:35:32.727Z,99.90
2024-04-15T18:38:03.451Z,99.90
2024-04-15T18:40:31.931Z,99.90
2024-04-15T18:43:01.623Z,99.90
2024-04-15T18:45:30.535Z,99.90
2024-04-15T18:47:59.096Z,99.90
2024-04-15T18:50:31.557Z,99.90
2024-04-15T18:53:01.790Z,99.90
2024-04-15T18:55:29.963Z,99.90
2024-04-15T18:57:57.668Z,99.90
2024-04-15T19:00:30.196Z,99.90
2024-04-15T19:03:01.470Z,99.90
2024-04-15T19:05:46.807Z,99.90
2024-04-15T19:08:16.440Z,99.90
2024-04-15T19:10:47.278Z,99.90
2024-04-15T19:13:30.386Z,99.90
2024-04-15T19:15:59.333Z,99.90
2024-04-15T19:18:30.048Z,99.90
2024-04-15T19:21:01.053Z,99.90
2024-04-15T19:23:32.337Z,99.90
2024-04-15T19:26:05.947Z,99.90
2024-04-15T19:28:34.054Z,99.90
2024-04-15T19:31:02.100Z,99.90
2024-04-15T19:33:32.447Z,99.90
2024-04-15T19:36:00.342Z,99.90
2024-04-15T19:38:29.979Z,99.90
2024-04-15T19:40:59.270Z,99.90
2024-04-15T19:43:27.392Z,99.90
2024-04-15T19:45:58.111Z,99.90
2024-04-15T19:48:27.045Z,99.90
2024-04-15T19:51:00.878Z,99.90
2024-04-15T19:53:29.367Z,99.90
2024-04-15T19:55:57.614Z,99.90
2024-04-15T19:58:25.526Z,99.90
2024-04-15T20:00:56.408Z,99.90
2024-04-15T20:03:30.447Z,99.90
2024-04-15T20:05:58.637Z,99.90
2024-04-15T20:08:27.955Z,99.90
2024-04-15T20:10:55.992Z,99.90
2024-04-15T20:13:25.040Z,99.90
2024-04-15T20:15:53.324Z,99.90
2024-04-15T20:18:36.596Z,99.90
2024-04-15T20:21:04.554Z,99.90
2024-04-15T20:23:35.711Z,99.90
2024-04-15T20:26:03.974Z,99.90
2024-04-15T20:28:41.462Z,99.90
2024-04-15T20:31:14.057Z,99.90
2024-04-15T20:33:44.776Z,99.90
2024-04-15T20:36:17.660Z,99.90
2024-04-15T20:39:17.671Z,99.90
2024-04-15T20:41:49.222Z,99.90
2024-04-15T20:44:25.419Z,99.90
2024-04-15T20:46:57.087Z,99.90
2024-04-15T20:49:28.352Z,99.90
2024-04-15T20:52:00.706Z,99.90
2024-04-15T20:54:36.147Z,99.90
2024-04-15T20:57:28.566Z,99.90
2024-04-15T20:59:56.861Z,99.90
2024-04-15T21:02:25.077Z,99.90
2024-04-15T21:05:01.776Z,99.90
2024-04-15T21:07:50.979Z,99.90
2024-04-15T21:10:19.601Z,99.90
2024-04-15T21:12:47.951Z,99.90
2024-04-15T21:15:24.079Z,99.90
2024-04-15T21:17:52.522Z,99.90
2024-04-15T21:20:32.554Z,99.90
2024-04-15T21:23:03.656Z,99.90
2024-04-15T21:25:52.009Z,99.90
2024-04-15T21:28:32.285Z,99.90
2024-04-15T21:31:11.560Z,99.90
2024-04-15T21:33:40.287Z,99.90
2024-04-15T21:36:08.974Z,99.90
2024-04-15T21:38:37.128Z,99.90
2024-04-15T21:41:08.091Z,99.90
2024-04-15T21:43:40.910Z,99.90
2024-04-15T21:46:11.183Z,99.90
2024-04-15T21:48:41.570Z,99.90
2024-04-15T21:51:09.359Z,99.90
2024-04-15T21:53:37.730Z,99.90
2024-04-15T21:56:05.957Z,99.90
2024-04-15T21:58:33.502Z,99.90
2024-04-15T22:01:00.889Z,99.90
2024-04-15T22:03:28.992Z,99.90
2024-04-15T22:05:57.355Z,99.90
2024-04-15T22:08:25.774Z,99.90
2024-04-15T22:10:54.261Z,99.90
2024-04-15T22:13:24.098Z,99.90
2024-04-15T22:15:52.483Z,99.90
2024-04-15T22:18:20.884Z,99.90
2024-04-15T22:20:49.145Z,99.90
2024-04-15T22:23:17.427Z,99.90
2024-04-15T22:25:53.253Z,99.90
2024-04-15T22:28:22.232Z,99.90
2024-04-15T22:30:51.801Z,99.90
2024-04-15T22:33:20.764Z,99.90
2024-04-15T22:35:49.843Z,99.90
2024-04-15T22:38:17.199Z,99.90
2024-04-15T22:40:44.670Z,99.90
2024-04-15T22:43:12.535Z,99.90
2024-04-15T22:45:40.458Z,99.90
2024-04-15T22:48:07.896Z,99.90
2024-04-15T22:50:35.282Z,99.90
2024-04-15T22:53:02.546Z,99.90
2024-04-15T22:55:29.988Z,99.90
2024-04-15T22:57:57.372Z,99.90
2024-04-15T23:00:24.862Z,99.90
2024-04-15T23:02:52.357Z,99.90
2024-04-15T23:05:19.703Z,99.90
2024-04-15T23:07:47.116Z,99.90
2024-04-15T23:10:14.469Z,99.90
2024-04-15T23:12:41.840Z,99.90
2024-04-15T23:15:09.251Z,99.90
2024-04-15T23:17:36.653Z,99.90
2024-04-15T23:20:04.158Z,99.90
2024-04-15T23:22:31.583Z,99.90
2024-04-15T23:24:58.934Z,99.90
2024-04-15T23:27:26.281Z,99.90
2024-04-15T23:29:53.634Z,99.90
2024-04-15T23:32:20.955Z,99.90
2024-04-15T23:34:48.281Z,99.90
2024-04-15T23:37:15.635Z,99.90
2024-04-15T23:39:43.088Z,99.90
2024-04-15T23:42:10.365Z,99.90
2024-04-15T23:44:37.789Z,99.90
2024-04-15T23:47:23.929Z,99.90
2024-04-15T23:50:10.163Z,99.90
2024-04-15T23:52:56.307Z,99.90
2024-04-15T23:55:42.627Z,99.90
2024-04-15T23:58:13.228Z,99.90
